Terminal Aerodrome Forecast
Issued by NWS Upton, NY

Home | Current Version | Previous Version | Text Only | Print | Product List | Glossary On
Versions: 1 2 3 4 5 6 7 8 9 10 11 12 13 14 15 16 17 18 19 20 21 22 23 24 25 26 27 28 29 30 31
821
FTUS41 KOKX 101120
TAFLGA
TAF
KLGA 101120Z 1012/1112 24006KT 6SM -SNDZ BKN020 OVC025
      TEMPO 1012/1014 BKN008
     FM101500 29011KT P6SM -SHSN BKN030
     FM101700 27014G21KT P6SM BKN040
     FM110600 30014G21KT P6SM BKN040=

USA.gov is the U.S. government's official web portal to all federal, state and local government web resources and services.